Time;durP1;ratioP1;P1;durP2;ratioP2;P2;SDS_P1;SDS_P2;PMS_P1;PMS_P2;Temp;Humidity;BMP_temperature;BMP_pressure;BME280_temperature;BME280_humidity;BME280_pressure;Samples;Min_cycle;Max_cycle;Signal;HPM_P1;HPM_P2
2022/11/21 00:00:59;;;;;;;21.05;4.50;;;7.80;99.90;;;;;;4971468;28;20031;-57
2022/11/21 00:03:24;;;;;;;20.60;4.07;;;7.70;99.90;;;;;;4968932;28;20027;-55
2022/11/21 00:05:50;;;;;;;25.25;4.00;;;7.80;99.90;;;;;;4969664;28;20790;-58
2022/11/21 00:08:18;;;;;;;26.92;4.40;;;7.80;99.90;;;;;;4976711;28;20046;-61
2022/11/21 00:10:44;;;;;;;22.27;3.17;;;7.80;99.90;;;;;;4976190;28;20492;-59
2022/11/21 00:13:18;;;;;;;25.45;4.45;;;7.80;99.90;;;;;;4980197;28;20039;-61
2022/11/21 00:15:44;;;;;;;20.40;3.90;;;7.70;99.90;;;;;;4976209;28;20034;-60
2022/11/21 00:18:13;;;;;;;25.75;4.30;;;7.70;99.90;;;;;;4971469;28;20042;-55
2022/11/21 00:20:40;;;;;;;20.83;3.55;;;7.70;99.90;;;;;;4970942;28;20031;-62
2022/11/21 00:23:06;;;;;;;21.73;3.35;;;7.80;99.90;;;;;;4973385;28;20457;-56
2022/11/21 00:25:31;;;;;;;27.25;4.03;;;7.80;99.90;;;;;;4971373;28;20481;-59
2022/11/21 00:27:57;;;;;;;16.10;3.35;;;7.80;99.90;;;;;;4974980;28;20027;-60
2022/11/21 00:30:23;;;;;;;24.17;3.00;;;7.80;99.90;;;;;;4974592;28;20030;-56
2022/11/21 00:32:48;;;;;;;20.75;2.92;;;7.80;99.90;;;;;;4970609;28;20034;-58
2022/11/21 00:35:14;;;;;;;19.92;3.33;;;7.80;99.90;;;;;;4975086;28;20030;-59
2022/11/21 00:37:39;;;;;;;16.60;3.45;;;7.70;99.90;;;;;;4966980;28;20026;-57
2022/11/21 00:40:05;;;;;;;31.35;3.95;;;7.70;99.90;;;;;;4973029;28;20097;-62
2022/11/21 00:42:31;;;;;;;28.45;4.55;;;7.70;99.90;;;;;;4971155;28;20058;-64
2022/11/21 00:44:57;;;;;;;31.83;3.53;;;7.70;99.90;;;;;;4973061;28;20089;-57
2022/11/21 00:47:22;;;;;;;23.08;4.03;;;7.70;99.90;;;;;;4977889;28;21668;-56
2022/11/21 00:49:48;;;;;;;24.30;4.07;;;7.70;99.90;;;;;;4978564;28;20027;-62
2022/11/21 00:52:14;;;;;;;32.28;5.10;;;7.70;99.90;;;;;;4977295;28;20070;-60
2022/11/21 00:54:40;;;;;;;20.02;3.55;;;7.60;99.90;;;;;;4978009;28;20121;-59
2022/11/21 00:57:05;;;;;;;21.35;3.78;;;7.60;99.90;;;;;;4978064;28;20170;-62
2022/11/21 00:59:31;;;;;;;14.77;3.20;;;7.60;99.90;;;;;;4973772;28;20439;-63
2022/11/21 01:01:56;;;;;;;26.35;4.30;;;7.60;99.90;;;;;;4972390;28;20022;-63
2022/11/21 01:04:22;;;;;;;12.23;2.88;;;7.70;99.90;;;;;;4975442;28;20066;-62
2022/11/21 01:06:47;;;;;;;25.40;3.80;;;7.70;99.90;;;;;;4972319;28;20026;-57
2022/11/21 01:09:13;;;;;;;21.40;3.42;;;7.60;99.90;;;;;;4971537;28;20085;-62
2022/11/21 01:11:39;;;;;;;16.77;3.67;;;7.60;99.90;;;;;;4982247;28;20141;-60
2022/11/21 01:14:05;;;;;;;28.48;4.53;;;7.60;99.90;;;;;;4975302;28;20031;-63
2022/11/21 01:16:30;;;;;;;42.22;3.42;;;7.60;99.90;;;;;;4962794;28;20512;-63
2022/11/21 01:18:57;;;;;;;23.08;4.68;;;7.60;99.90;;;;;;4970919;28;20045;-59
2022/11/21 01:21:25;;;;;;;13.55;3.30;;;7.60;99.90;;;;;;4982836;28;20029;-59
2022/11/21 01:23:51;;;;;;;20.38;3.85;;;7.60;99.90;;;;;;4971391;28;20617;-62
2022/11/21 01:26:19;;;;;;;20.30;3.40;;;7.60;99.90;;;;;;4983667;28;20057;-61
2022/11/21 01:28:45;;;;;;;39.70;3.35;;;7.60;99.90;;;;;;4978211;28;20568;-59
2022/11/21 01:31:13;;;;;;;21.38;3.30;;;7.60;99.90;;;;;;4974766;28;20030;-62
2022/11/21 01:33:39;;;;;;;21.38;2.97;;;7.60;99.90;;;;;;4981290;28;20025;-60
2022/11/21 01:36:15;;;;;;;26.63;4.53;;;7.60;99.90;;;;;;4969769;28;20102;-61
2022/11/21 01:38:43;;;;;;;16.88;2.38;;;7.60;99.90;;;;;;4975052;28;20032;-62
2022/11/21 01:41:10;;;;;;;24.23;3.03;;;7.60;99.90;;;;;;4975370;28;20033;-60
2022/11/21 01:43:36;;;;;;;16.50;3.38;;;7.60;99.90;;;;;;4978849;28;20027;-58
2022/11/21 01:46:08;;;;;;;23.65;3.13;;;7.60;99.90;;;;;;4977262;28;20849;-56
2022/11/21 01:48:39;;;;;;;26.38;4.32;;;7.60;99.90;;;;;;4967986;28;20046;-57
2022/11/21 01:51:07;;;;;;;20.45;3.83;;;7.60;99.90;;;;;;4973849;28;20039;-62
2022/11/21 01:53:34;;;;;;;21.33;3.53;;;7.60;99.90;;;;;;4971419;28;20031;-57
2022/11/21 01:56:01;;;;;;;21.02;2.55;;;7.60;99.90;;;;;;4976005;28;20041;-62
2022/11/21 01:58:28;;;;;;;29.52;3.42;;;7.60;99.90;;;;;;4978441;28;20029;-62
2022/11/21 02:00:53;;;;;;;24.70;3.47;;;7.50;99.90;;;;;;4970874;28;20053;-63
2022/11/21 02:03:22;;;;;;;18.60;4.03;;;7.50;99.90;;;;;;4973106;28;20026;-59
2022/11/21 02:05:48;;;;;;;14.00;2.80;;;7.50;99.90;;;;;;4971019;28;20015;-64
2022/11/21 02:08:18;;;;;;;22.05;3.78;;;7.50;99.90;;;;;;4956930;28;20034;-60
2022/11/21 02:11:02;;;;;;;17.92;3.03;;;7.40;99.90;;;;;;4972253;28;20066;-59
2022/11/21 02:13:28;;;;;;;9.68;2.63;;;7.40;99.90;;;;;;4971210;28;20033;-59
2022/11/21 02:15:54;;;;;;;18.70;3.42;;;7.40;99.90;;;;;;4980043;28;20035;-62
2022/11/21 02:18:20;;;;;;;14.63;2.80;;;7.40;99.90;;;;;;4978265;28;20041;-58
2022/11/21 02:20:50;;;;;;;20.75;3.17;;;7.50;99.90;;;;;;4972024;28;20042;-60
2022/11/21 02:23:40;;;;;;;14.25;3.28;;;7.50;99.90;;;;;;4975090;28;22214;-61
2022/11/21 02:26:06;;;;;;;10.38;2.53;;;7.40;99.90;;;;;;4972970;28;20026;-58
2022/11/21 02:28:32;;;;;;;12.05;2.72;;;7.40;99.90;;;;;;4974349;28;20026;-60
2022/11/21 02:30:58;;;;;;;18.83;4.70;;;7.40;99.90;;;;;;4970416;28;20047;-57
2022/11/21 02:33:23;;;;;;;17.20;3.70;;;7.40;99.90;;;;;;4976785;28;20141;-59
2022/11/21 02:36:00;;;;;;;15.50;4.47;;;7.40;99.90;;;;;;4971249;28;20109;-62
2022/11/21 02:38:37;;;;;;;22.88;4.15;;;7.40;99.90;;;;;;4975723;28;20023;-60
2022/11/21 02:41:11;;;;;;;17.42;2.78;;;7.40;99.90;;;;;;4971892;28;20030;-57
2022/11/21 02:44:01;;;;;;;15.23;3.45;;;7.40;99.90;;;;;;4974715;28;20023;-57
2022/11/21 02:46:27;;;;;;;9.40;2.95;;;7.40;99.90;;;;;;4972842;28;20420;-59
2022/11/21 02:48:55;;;;;;;17.80;3.03;;;7.30;99.90;;;;;;4977307;28;20031;-55
2022/11/21 02:51:20;;;;;;;11.93;3.28;;;7.30;99.90;;;;;;4976297;28;20101;-60
2022/11/21 02:53:46;;;;;;;8.82;2.70;;;7.30;99.90;;;;;;4971370;28;20485;-60
2022/11/21 02:56:11;;;;;;;15.80;3.58;;;7.30;99.90;;;;;;4978345;28;20026;-58
2022/11/21 02:58:37;;;;;;;13.60;2.00;;;7.30;99.90;;;;;;4977643;28;20054;-60
2022/11/21 03:01:02;;;;;;;12.55;2.90;;;7.20;99.90;;;;;;4972982;28;20113;-60
2022/11/21 03:03:28;;;;;;;12.32;2.47;;;7.20;99.90;;;;;;4948256;28;21057;-59
2022/11/21 03:05:54;;;;;;;15.23;2.80;;;7.30;99.90;;;;;;4973442;28;20023;-61
2022/11/21 03:08:20;;;;;;;12.45;2.60;;;7.20;99.90;;;;;;4973205;28;20496;-60
2022/11/21 03:10:45;;;;;;;11.88;2.75;;;7.20;99.90;;;;;;4970938;28;20026;-58
2022/11/21 03:13:11;;;;;;;12.65;2.33;;;7.30;99.90;;;;;;4978684;28;20030;-63
2022/11/21 03:15:36;;;;;;;12.60;2.53;;;7.30;99.90;;;;;;4976297;28;20027;-59
2022/11/21 03:18:03;;;;;;;13.15;2.70;;;7.30;99.90;;;;;;4972251;28;20042;-58
2022/11/21 03:20:30;;;;;;;6.22;2.00;;;7.20;99.90;;;;;;4979856;28;20110;-57
2022/11/21 03:22:55;;;;;;;16.77;3.13;;;7.30;99.90;;;;;;4972025;28;20023;-57
2022/11/21 03:25:21;;;;;;;16.83;3.53;;;7.20;99.90;;;;;;4973838;28;20031;-59
2022/11/21 03:27:51;;;;;;;17.27;3.30;;;7.20;99.90;;;;;;4971943;28;20027;-56
2022/11/21 03:30:17;;;;;;;24.10;2.75;;;7.20;99.90;;;;;;4969456;28;20026;-58
2022/11/21 03:32:42;;;;;;;16.45;3.00;;;7.20;99.90;;;;;;4973552;28;20023;-57
2022/11/21 03:35:08;;;;;;;12.25;4.80;;;7.20;99.90;;;;;;4980517;28;20248;-60
2022/11/21 03:37:33;;;;;;;18.58;2.72;;;7.20;99.90;;;;;;4968866;28;20039;-61
2022/11/21 03:39:59;;;;;;;17.35;2.45;;;7.30;99.90;;;;;;4977155;28;20041;-61
2022/11/21 03:42:24;;;;;;;19.40;2.95;;;7.30;99.90;;;;;;4974954;28;20030;-59
2022/11/21 03:44:50;;;;;;;17.65;5.32;;;7.30;99.90;;;;;;4974454;28;20088;-60
2022/11/21 03:47:16;;;;;;;9.57;2.60;;;7.30;99.90;;;;;;4971633;28;20082;-60
2022/11/21 03:49:41;;;;;;;20.73;3.28;;;7.30;99.90;;;;;;4970264;28;20133;-60
2022/11/21 03:52:07;;;;;;;7.55;3.30;;;7.20;99.90;;;;;;4975073;28;20042;-57
2022/11/21 03:54:32;;;;;;;13.73;3.55;;;7.20;99.90;;;;;;4970288;28;20035;-61
2022/11/21 03:56:58;;;;;;;9.20;2.75;;;7.20;99.90;;;;;;4974878;28;20039;-57
2022/11/21 03:59:23;;;;;;;10.30;3.05;;;7.20;99.90;;;;;;4976287;28;20054;-56
2022/11/21 04:01:49;;;;;;;15.98;3.50;;;7.20;99.90;;;;;;4969206;28;20026;-59
2022/11/21 04:04:14;;;;;;;12.15;3.42;;;7.20;99.90;;;;;;4970770;28;20027;-55
2022/11/21 04:06:40;;;;;;;8.60;3.70;;;7.20;99.90;;;;;;4972218;28;20023;-57
2022/11/21 04:09:05;;;;;;;15.15;3.47;;;7.10;99.90;;;;;;4972562;28;20066;-52
2022/11/21 04:11:31;;;;;;;13.00;3.90;;;7.20;99.90;;;;;;4975120;28;20038;-60
2022/11/21 04:13:56;;;;;;;16.58;3.63;;;7.20;99.90;;;;;;4977451;28;20062;-61
2022/11/21 04:16:22;;;;;;;15.02;3.45;;;7.20;99.90;;;;;;4969956;28;20023;-60
2022/11/21 04:18:47;;;;;;;19.92;4.68;;;7.20;99.90;;;;;;4999625;23;20039;-58
2022/11/21 04:21:13;;;;;;;7.75;3.70;;;7.20;99.90;;;;;;4994544;28;20045;-58
2022/11/21 04:23:38;;;;;;;26.23;4.90;;;7.20;99.90;;;;;;4989198;28;20030;-56
2022/11/21 04:26:04;;;;;;;14.40;4.20;;;7.20;99.90;;;;;;4996246;28;20041;-58
2022/11/21 04:28:30;;;;;;;15.15;4.85;;;7.20;99.90;;;;;;4996008;28;20440;-58
2022/11/21 04:31:01;;;;;;;14.00;4.70;;;7.20;99.90;;;;;;4990790;28;20026;-57
2022/11/21 04:33:27;;;;;;;12.70;4.53;;;7.20;99.90;;;;;;4992241;28;20030;-58
2022/11/21 04:35:52;;;;;;;15.27;4.53;;;7.20;99.90;;;;;;4998048;28;20034;-56
2022/11/21 04:38:18;;;;;;;15.02;4.43;;;7.20;99.90;;;;;;4993210;28;20037;-56
2022/11/21 04:40:44;;;;;;;11.15;4.70;;;7.20;99.90;;;;;;4990141;28;20076;-57
2022/11/21 04:43:09;;;;;;;17.15;3.97;;;7.20;99.90;;;;;;4993311;28;20080;-56
2022/11/21 04:45:35;;;;;;;16.17;5.10;;;7.20;99.90;;;;;;4994063;28;20408;-56
2022/11/21 04:48:00;;;;;;;13.68;4.45;;;7.20;99.90;;;;;;4991844;28;20515;-56
2022/11/21 04:50:26;;;;;;;14.85;5.18;;;7.20;99.90;;;;;;4979161;28;20037;-54
2022/11/21 04:52:53;;;;;;;17.95;4.95;;;7.20;99.90;;;;;;4991616;28;20030;-57
2022/11/21 04:55:20;;;;;;;18.05;5.07;;;7.20;99.90;;;;;;4993511;28;20026;-56
2022/11/21 04:57:46;;;;;;;12.00;5.53;;;7.20;99.90;;;;;;4993069;28;20113;-56
2022/11/21 05:00:13;;;;;;;15.10;4.60;;;7.20;99.90;;;;;;4994332;28;20091;-57
2022/11/21 05:02:39;;;;;;;21.50;6.57;;;7.20;99.90;;;;;;4992615;28;20126;-58
2022/11/21 05:05:05;;;;;;;12.55;6.05;;;7.10;99.90;;;;;;4993083;28;20050;-54
2022/11/21 05:07:30;;;;;;;23.13;6.50;;;7.20;99.90;;;;;;4994861;28;20022;-56
2022/11/21 05:09:56;;;;;;;20.20;6.85;;;7.10;99.90;;;;;;4994453;28;20053;-56
2022/11/21 05:15:06;;;;;;;20.20;5.35;;;7.10;99.90;;;;;;4992978;28;20511;-57
2022/11/21 05:17:31;;;;;;;14.70;6.35;;;7.20;99.90;;;;;;4994148;28;20033;-57
2022/11/21 05:19:57;;;;;;;19.10;6.25;;;7.20;99.90;;;;;;5000339;28;20088;-58
2022/11/21 05:22:22;;;;;;;14.05;5.38;;;7.20;99.90;;;;;;4992614;28;20042;-56
2022/11/21 05:24:48;;;;;;;13.95;6.03;;;7.10;99.90;;;;;;4991364;28;20022;-56
2022/11/21 05:27:13;;;;;;;18.13;6.43;;;7.20;99.90;;;;;;4989886;28;20041;-57
2022/11/21 05:29:39;;;;;;;20.60;7.15;;;7.10;99.90;;;;;;4987482;28;20034;-54
2022/11/21 05:32:04;;;;;;;22.85;6.38;;;7.10;99.90;;;;;;4992476;28;20030;-54
2022/11/21 05:34:30;;;;;;;15.43;5.95;;;7.20;99.90;;;;;;4996327;28;20469;-53
2022/11/21 05:36:58;;;;;;;19.95;6.63;;;7.20;99.90;;;;;;4997025;28;20607;-55
2022/11/21 05:39:24;;;;;;;16.25;6.38;;;7.20;99.90;;;;;;4990675;28;20050;-56
2022/11/21 05:41:51;;;;;;;12.32;6.65;;;7.20;99.90;;;;;;4994373;28;20018;-56
2022/11/21 05:44:17;;;;;;;22.38;6.97;;;7.20;99.90;;;;;;4987950;28;20081;-57
2022/11/21 05:46:43;;;;;;;24.02;8.85;;;7.20;99.90;;;;;;4993045;28;20053;-53
2022/11/21 05:49:08;;;;;;;20.52;7.75;;;7.20;99.90;;;;;;4993455;28;20133;-56
2022/11/21 05:51:34;;;;;;;29.35;8.00;;;7.20;99.90;;;;;;4991942;28;20026;-55
2022/11/21 05:54:00;;;;;;;26.10;8.48;;;7.20;99.90;;;;;;4994828;28;20153;-57
2022/11/21 05:56:26;;;;;;;22.17;9.07;;;7.20;99.90;;;;;;4994481;28;20025;-57
2022/11/21 05:58:54;;;;;;;34.42;10.25;;;7.10;99.90;;;;;;4993794;28;20082;-56
2022/11/21 06:03:25;;;;;;;20.85;8.55;;;7.10;99.90;;;;;;4990297;28;20032;-55
2022/11/21 06:04:06;;;;;;;25.17;8.50;;;7.10;99.90;;;;;;4988629;28;20045;-54
2022/11/21 06:06:31;;;;;;;19.02;9.13;;;7.20;99.90;;;;;;4983107;28;20033;-58
2022/11/21 06:08:57;;;;;;;28.38;8.88;;;7.20;99.90;;;;;;4990751;28;20034;-57
2022/11/21 06:11:22;;;;;;;23.55;8.32;;;7.20;99.90;;;;;;4981652;28;20037;-57
2022/11/21 06:13:48;;;;;;;33.10;9.25;;;7.20;99.90;;;;;;4981200;28;20117;-57
2022/11/21 06:16:18;;;;;;;41.25;12.55;;;7.20;99.90;;;;;;4990668;28;20562;-57
2022/11/21 06:18:45;;;;;;;22.38;7.95;;;7.20;99.90;;;;;;4988209;28;20018;-58
2022/11/21 06:21:15;;;;;;;17.20;7.32;;;7.20;99.90;;;;;;4998182;28;20633;-58
2022/11/21 06:23:41;;;;;;;14.70;7.65;;;7.20;99.90;;;;;;4986717;28;20033;-58
2022/11/21 06:26:11;;;;;;;22.05;7.43;;;7.20;99.90;;;;;;4989992;28;20034;-55
2022/11/21 06:28:40;;;;;;;19.70;7.38;;;7.20;99.90;;;;;;4993931;28;20026;-58
2022/11/21 06:31:11;;;;;;;16.63;6.88;;;7.30;99.90;;;;;;4994438;28;20046;-56
2022/11/21 06:33:37;;;;;;;16.73;7.60;;;7.20;99.90;;;;;;4988942;28;20109;-56
2022/11/21 06:36:04;;;;;;;16.30;6.18;;;7.20;99.90;;;;;;4987149;28;20034;-54
2022/11/21 06:38:30;;;;;;;25.52;7.00;;;7.30;99.90;;;;;;4992721;28;20030;-56
2022/11/21 06:40:56;;;;;;;13.85;6.90;;;7.30;99.90;;;;;;4992177;28;20492;-54
2022/11/21 06:43:21;;;;;;;19.45;7.15;;;7.20;99.90;;;;;;4955905;28;20118;-55
2022/11/21 06:45:47;;;;;;;18.92;6.85;;;7.20;99.90;;;;;;4991607;28;20058;-55
2022/11/21 06:48:12;;;;;;;16.58;6.05;;;7.20;99.90;;;;;;4991205;28;20019;-56
2022/11/21 06:50:38;;;;;;;23.00;6.88;;;7.20;99.90;;;;;;4989020;28;20030;-54
2022/11/21 06:53:04;;;;;;;15.82;7.32;;;7.20;99.90;;;;;;4992607;28;20026;-58
2022/11/21 06:55:30;;;;;;;14.98;6.40;;;7.20;99.90;;;;;;4991295;28;20153;-57
2022/11/21 06:57:59;;;;;;;14.20;6.38;;;7.20;99.90;;;;;;4992592;28;20233;-59
2022/11/21 07:00:26;;;;;;;16.02;6.60;;;7.20;99.90;;;;;;4992273;28;20266;-58
2022/11/21 07:02:52;;;;;;;20.45;7.53;;;7.20;99.90;;;;;;4991621;28;20022;-57
2022/11/21 07:05:18;;;;;;;14.82;6.00;;;7.10;99.90;;;;;;4992991;28;20046;-57
2022/11/21 07:07:43;;;;;;;13.95;6.38;;;7.20;99.90;;;;;;4979486;28;20023;-56
2022/11/21 07:10:09;;;;;;;20.83;6.60;;;7.10;99.90;;;;;;4991218;28;20038;-58
2022/11/21 07:13:35;;;;;;;14.20;6.32;;;7.00;99.90;;;;;;4992466;28;20027;-56
2022/11/21 07:15:29;;;;;;;17.83;6.13;;;7.00;99.90;;;;;;4973609;28;20105;-58
2022/11/21 07:17:57;;;;;;;13.93;6.43;;;6.90;99.90;;;;;;4992466;28;20042;-58
2022/11/21 07:20:22;;;;;;;16.55;6.25;;;7.00;99.90;;;;;;4992190;28;20045;-53
2022/11/21 07:22:52;;;;;;;23.75;9.20;;;7.00;99.90;;;;;;4992092;28;20109;-57
2022/11/21 07:25:17;;;;;;;22.60;7.40;;;7.10;99.90;;;;;;4990956;28;20362;-58
2022/11/21 07:27:43;;;;;;;17.25;6.45;;;7.10;99.90;;;;;;4986507;28;20037;-54
2022/11/21 07:30:09;;;;;;;20.98;6.47;;;7.10;99.90;;;;;;4986464;28;20042;-56
2022/11/21 07:32:34;;;;;;;18.00;6.57;;;7.10;99.90;;;;;;4990183;28;20038;-57
2022/11/21 07:35:00;;;;;;;19.88;7.05;;;7.20;99.90;;;;;;4987552;28;20177;-57
2022/11/21 07:37:26;;;;;;;14.43;5.95;;;7.20;99.90;;;;;;4989579;28;20034;-57
2022/11/21 07:39:51;;;;;;;14.30;6.30;;;7.20;99.90;;;;;;4989159;28;20087;-58
2022/11/21 07:42:17;;;;;;;10.88;6.22;;;7.30;99.90;;;;;;4985286;28;20038;-58
2022/11/21 07:44:42;;;;;;;21.75;8.40;;;7.20;99.90;;;;;;4984772;28;20045;-58
2022/11/21 07:47:08;;;;;;;14.23;5.70;;;7.10;99.90;;;;;;4989120;28;20620;-57
2022/11/21 07:49:33;;;;;;;19.80;8.57;;;7.20;99.90;;;;;;4985424;28;20050;-58
2022/11/21 07:51:59;;;;;;;15.40;6.65;;;7.20;99.90;;;;;;4987601;28;20149;-58
2022/11/21 07:54:24;;;;;;;14.27;6.38;;;7.20;99.90;;;;;;4986566;28;20050;-60
2022/11/21 07:56:50;;;;;;;15.60;5.40;;;7.20;99.90;;;;;;4987080;28;20045;-60
2022/11/21 07:59:18;;;;;;;22.85;6.35;;;7.30;99.90;;;;;;4986828;28;20030;-60
2022/11/21 08:01:43;;;;;;;14.93;6.35;;;7.30;99.90;;;;;;4988147;28;20139;-59
2022/11/21 08:04:09;;;;;;;13.23;6.25;;;7.30;99.90;;;;;;4988003;28;20105;-59
2022/11/21 08:06:34;;;;;;;11.68;5.50;;;7.30;99.90;;;;;;4988582;28;20026;-58
2022/11/21 08:09:00;;;;;;;13.68;6.00;;;7.30;99.90;;;;;;4987234;28;20034;-58
2022/11/21 08:11:25;;;;;;;14.50;6.70;;;7.30;99.90;;;;;;4985917;28;20384;-59
2022/11/21 08:13:51;;;;;;;10.05;5.75;;;7.40;99.90;;;;;;4983870;28;20078;-60
2022/11/21 08:16:16;;;;;;;14.30;6.55;;;7.40;99.90;;;;;;4987570;28;20393;-59
2022/11/21 08:18:42;;;;;;;12.95;6.63;;;7.40;99.90;;;;;;4986783;28;20614;-58
2022/11/21 08:21:07;;;;;;;17.20;7.38;;;7.40;99.90;;;;;;4988201;28;20042;-60
2022/11/21 08:23:33;;;;;;;24.13;8.05;;;7.40;99.90;;;;;;4987928;28;20015;-59
2022/11/21 08:25:58;;;;;;;9.85;5.97;;;7.40;99.90;;;;;;4988176;28;20022;-64
2022/11/21 08:28:24;;;;;;;13.98;6.97;;;7.40;99.90;;;;;;4989258;28;20038;-59
2022/11/21 08:30:49;;;;;;;16.50;6.93;;;7.30;99.90;;;;;;4991405;28;20436;-57
2022/11/21 08:33:15;;;;;;;13.45;7.10;;;7.30;99.90;;;;;;4990381;28;20038;-59
2022/11/21 08:35:41;;;;;;;14.30;7.72;;;7.40;99.90;;;;;;4991264;28;20037;-59
2022/11/21 08:38:07;;;;;;;14.65;7.13;;;7.40;99.90;;;;;;4989004;28;20030;-58
2022/11/21 08:40:34;;;;;;;20.58;7.45;;;7.40;99.90;;;;;;4987065;28;20105;-59
2022/11/21 08:43:08;;;;;;;17.98;7.85;;;7.40;99.90;;;;;;4989487;28;20030;-58
2022/11/21 08:45:35;;;;;;;22.00;8.48;;;7.40;99.90;;;;;;4983108;28;20599;-59
2022/11/21 08:48:01;;;;;;;17.48;7.18;;;7.40;99.90;;;;;;4988690;28;20045;-59
2022/11/21 08:50:27;;;;;;;12.88;7.20;;;7.40;99.90;;;;;;4988974;28;20022;-58
2022/11/21 08:52:59;;;;;;;22.58;8.35;;;7.40;99.90;;;;;;4985282;28;20030;-59
2022/11/21 08:55:24;;;;;;;15.05;7.72;;;7.40;99.90;;;;;;4985743;28;20109;-58
2022/11/21 08:57:49;;;;;;;11.80;7.43;;;7.40;99.90;;;;;;4987201;28;20492;-58
2022/11/21 09:00:15;;;;;;;15.88;7.68;;;7.40;99.90;;;;;;4989104;28;20043;-58
2022/11/21 09:02:41;;;;;;;14.43;8.00;;;7.50;99.90;;;;;;4990203;28;20113;-59
2022/11/21 09:05:07;;;;;;;17.65;8.55;;;7.50;99.90;;;;;;4992073;28;20510;-57
2022/11/21 09:07:32;;;;;;;19.15;8.45;;;7.50;99.90;;;;;;4970992;28;20026;-58
2022/11/21 09:09:58;;;;;;;17.15;8.60;;;7.60;99.90;;;;;;4991384;28;20444;-58
2022/11/21 09:12:23;;;;;;;16.45;8.45;;;7.50;99.90;;;;;;4992686;28;20026;-59
2022/11/21 09:20:17;;;;;;;15.77;8.60;;;7.70;99.90;;;;;;4991316;28;20129;-58
2022/11/21 09:22:42;;;;;;;16.80;9.50;;;7.70;99.90;;;;;;4990406;28;20109;-57
2022/11/21 09:25:08;;;;;;;24.77;10.45;;;7.80;99.90;;;;;;4990754;28;20060;-60
2022/11/21 09:27:35;;;;;;;26.85;12.30;;;7.80;99.90;;;;;;4993200;28;20046;-59
2022/11/21 09:30:00;;;;;;;19.52;9.27;;;7.80;99.90;;;;;;4991830;28;20037;-58
2022/11/21 09:32:26;;;;;;;23.25;9.95;;;7.90;99.90;;;;;;4992643;28;20125;-59
2022/11/21 09:34:51;;;;;;;22.23;8.95;;;7.90;99.90;;;;;;4991764;28;20069;-58
2022/11/21 09:37:17;;;;;;;16.88;8.55;;;7.90;99.90;;;;;;4990864;28;20072;-57
2022/11/21 09:39:42;;;;;;;14.93;7.75;;;8.00;99.90;;;;;;4992007;28;20034;-57
2022/11/21 09:42:32;;;;;;;21.48;7.45;;;7.90;99.90;;;;;;4992720;28;20042;-57
2022/11/21 09:45:13;;;;;;;16.40;6.90;;;8.00;99.90;;;;;;4989489;28;20036;-59
2022/11/21 09:47:44;;;;;;;12.50;6.28;;;8.20;99.90;;;;;;4991130;28;20022;-57
2022/11/21 09:50:12;;;;;;;16.70;6.20;;;8.30;99.90;;;;;;4991892;28;20026;-56
2022/11/21 09:52:47;;;;;;;13.15;6.45;;;8.40;99.90;;;;;;4991144;28;20130;-58
2022/11/21 09:55:33;;;;;;;17.08;5.43;;;8.40;99.90;;;;;;4991861;28;20038;-57
2022/11/21 09:58:20;;;;;;;14.02;5.40;;;8.60;99.90;;;;;;4990727;28;20520;-59
2022/11/21 10:00:45;;;;;;;14.85;5.95;;;8.60;99.90;;;;;;4989323;28;20031;-56
2022/11/21 10:03:12;;;;;;;11.30;4.72;;;8.50;99.90;;;;;;4983334;28;20037;-58
2022/11/21 10:05:46;;;;;;;14.30;5.03;;;8.60;99.90;;;;;;4963383;28;20034;-59
2022/11/21 10:08:38;;;;;;;13.23;4.55;;;8.70;99.90;;;;;;4989388;28;20080;-60
2022/11/21 10:11:25;;;;;;;8.48;2.97;;;8.60;99.90;;;;;;4968265;28;20046;-58
2022/11/21 10:14:26;;;;;;;9.85;3.30;;;8.70;99.90;;;;;;4988654;28;20454;-58
2022/11/21 10:17:17;;;;;;;9.77;2.92;;;8.70;99.90;;;;;;4986585;28;20545;-58
2022/11/21 10:19:56;;;;;;;9.10;2.85;;;8.90;99.90;;;;;;4990688;28;20065;-56
2022/11/21 10:22:31;;;;;;;6.07;2.70;;;8.90;99.90;;;;;;4989870;28;20634;-57
2022/11/21 10:25:08;;;;;;;8.73;2.28;;;8.90;99.90;;;;;;4990200;28;20042;-60
2022/11/21 10:27:40;;;;;;;3.60;2.33;;;8.90;99.90;;;;;;4990049;28;20564;-56
2022/11/21 10:30:14;;;;;;;5.70;2.55;;;8.90;99.90;;;;;;4985565;28;20036;-55
2022/11/21 10:32:45;;;;;;;4.43;2.30;;;8.90;99.90;;;;;;4988880;28;20049;-56
2022/11/21 10:35:22;;;;;;;4.70;1.60;;;8.80;99.90;;;;;;4988920;28;20038;-56
2022/11/21 10:37:59;;;;;;;4.05;1.98;;;8.80;99.90;;;;;;4981580;28;20115;-55
2022/11/21 10:40:30;;;;;;;8.55;1.70;;;8.80;99.90;;;;;;4989335;28;20042;-56
2022/11/21 10:45:15;;;;;;;3.85;2.05;;;8.80;99.90;;;;;;4989638;28;20036;-57
2022/11/21 10:45:46;;;;;;;8.65;2.42;;;8.90;99.90;;;;;;4989042;28;20023;-57
2022/11/21 10:48:12;;;;;;;6.60;2.08;;;9.00;99.90;;;;;;4988941;28;20038;-57
2022/11/21 10:50:58;;;;;;;6.50;1.73;;;9.00;99.90;;;;;;5011291;23;20057;-60
2022/11/21 10:56:20;;;;;;;4.93;1.63;;;9.30;99.90;;;;;;5007066;28;20472;-58
2022/11/21 10:58:50;;;;;;;7.45;1.92;;;9.40;99.90;;;;;;5007303;28;20079;-59
2022/11/21 11:01:25;;;;;;;6.72;1.40;;;9.60;99.90;;;;;;4975732;28;20039;-59
2022/11/21 11:04:05;;;;;;;;;;;9.70;99.90;;;;;;4964977;28;20034;-61
2022/11/21 11:06:31;;;;;;;5.47;2.05;;;9.80;99.90;;;;;;4965533;28;20008;-62
2022/11/21 11:08:57;;;;;;;6.32;1.40;;;9.90;99.90;;;;;;4966151;28;20118;-62
2022/11/21 11:11:24;;;;;;;8.75;1.10;;;10.00;99.90;;;;;;4969191;28;21820;-61
2022/11/21 11:13:56;;;;;;;4.25;1.10;;;10.00;99.90;;;;;;4967175;28;20027;-62
2022/11/21 11:16:23;;;;;;;3.25;0.77;;;10.10;99.90;;;;;;4964099;28;20834;-62
2022/11/21 11:19:03;;;;;;;4.22;0.90;;;10.10;99.90;;;;;;4976669;28;20398;-61
2022/11/21 11:21:45;;;;;;;1.45;0.70;;;10.00;99.90;;;;;;4965339;28;20037;-61
2022/11/21 11:24:10;;;;;;;13.18;1.13;;;10.20;99.90;;;;;;4971209;28;20058;-61
2022/11/21 11:26:48;;;;;;;3.83;0.82;;;10.30;99.90;;;;;;4984973;28;20057;-62
2022/11/21 11:29:14;;;;;;;1.38;0.68;;;10.30;99.90;;;;;;4982061;28;20028;-62
2022/11/21 11:31:41;;;;;;;3.00;0.80;;;10.40;99.90;;;;;;4977606;28;20018;-61
2022/11/21 11:34:12;;;;;;;4.38;0.90;;;10.50;99.90;;;;;;4983864;28;20038;-62
2022/11/21 11:36:44;;;;;;;3.25;0.70;;;10.40;99.90;;;;;;4966036;28;20404;-62
2022/11/21 11:39:18;;;;;;;3.03;0.90;;;10.20;99.90;;;;;;4973584;28;20413;-62
2022/11/21 11:47:55;;;;;;;2.30;0.75;;;10.40;99.90;;;;;;4972074;28;20472;-61
2022/11/21 11:50:42;;;;;;;2.70;0.60;;;10.20;99.90;;;;;;4968659;28;20053;-61
2022/11/21 11:53:29;;;;;;;5.10;0.90;;;10.20;99.90;;;;;;4986049;28;20065;-62
2022/11/21 11:56:25;;;;;;;1.67;0.70;;;10.20;99.90;;;;;;4978677;28;20085;-58
2022/11/21 11:59:11;;;;;;;3.75;0.60;;;10.30;99.90;;;;;;4976413;28;20041;-62
2022/11/21 12:01:54;;;;;;;4.97;0.70;;;10.30;99.90;;;;;;4983174;28;20113;-63
2022/11/21 12:04:23;;;;;;;2.10;0.80;;;10.40;99.90;;;;;;4972795;28;20077;-61
2022/11/21 12:07:13;;;;;;;3.38;1.00;;;10.20;99.90;;;;;;4978886;28;20026;-61
2022/11/21 12:09:44;;;;;;;5.35;1.00;;;10.30;99.90;;;;;;4980247;28;20708;-60
2022/11/21 12:12:32;;;;;;;3.47;0.75;;;10.20;99.90;;;;;;4969710;28;20035;-62
2022/11/21 12:18:19;;;;;;;8.38;1.00;;;10.30;99.90;;;;;;4976350;28;22380;-63
2022/11/21 12:21:06;;;;;;;2.08;1.17;;;10.30;99.90;;;;;;4980514;28;20034;-63
2022/11/21 12:23:49;;;;;;;4.10;0.80;;;10.20;99.90;;;;;;4985006;28;20038;-61
2022/11/21 12:27:08;;;;;;;2.95;0.82;;;10.10;99.90;;;;;;4966639;28;20452;-63
2022/11/21 12:30:03;;;;;;;7.85;1.27;;;10.00;99.90;;;;;;4882850;29;20076;-64
2022/11/21 12:32:44;;;;;;;3.42;0.95;;;10.10;99.90;;;;;;4972231;28;20046;-60
2022/11/21 12:35:49;;;;;;;5.20;1.65;;;10.10;99.90;;;;;;4972478;28;20058;-62
2022/11/21 12:39:01;;;;;;;4.50;1.15;;;10.30;99.90;;;;;;4975011;28;20035;-61
2022/11/21 12:44:49;;;;;;;3.03;1.00;;;10.40;99.90;;;;;;4966819;28;20097;-61
2022/11/21 12:54:29;;;;;;;5.07;1.17;;;10.40;99.90;;;;;;4967456;28;20033;-63
2022/11/21 12:54:32;;;;;;;3.58;1.00;;;10.40;99.90;;;;;;4968869;28;20050;-62
2022/11/21 12:57:17;;;;;;;5.88;0.95;;;10.40;99.90;;;;;;4976411;28;20175;-64
2022/11/21 13:00:06;;;;;;;3.55;0.95;;;10.50;99.90;;;;;;4979151;28;20034;-62
2022/11/21 13:02:35;;;;;;;8.60;0.88;;;10.40;99.90;;;;;;4977044;28;20634;-61
2022/11/21 13:05:03;;;;;;;8.52;0.85;;;10.40;99.90;;;;;;4974466;28;20574;-62
2022/11/21 13:07:30;;;;;;;4.65;0.80;;;10.40;99.90;;;;;;4987120;28;20044;-62
2022/11/21 13:09:58;;;;;;;5.40;1.17;;;10.30;99.90;;;;;;4976119;28;20152;-62
2022/11/21 13:12:39;;;;;;;2.40;0.68;;;10.20;99.90;;;;;;4973440;28;20049;-62
2022/11/21 13:15:32;;;;;;;8.73;1.15;;;10.10;99.90;;;;;;4969769;28;20167;-63
2022/11/21 13:18:20;;;;;;;5.68;1.20;;;10.10;99.90;;;;;;4965726;28;20023;-62
2022/11/21 13:20:48;;;;;;;2.90;0.90;;;10.10;99.90;;;;;;4963191;28;20067;-63
2022/11/21 13:23:36;;;;;;;8.85;0.85;;;10.00;99.90;;;;;;4970702;28;20057;-61
2022/11/21 13:26:25;;;;;;;2.45;0.80;;;10.00;99.90;;;;;;4967078;28;20392;-60
2022/11/21 13:29:14;;;;;;;3.03;0.80;;;9.90;99.90;;;;;;4974820;28;20554;-61